Time;durP1;ratioP1;P1;durP2;ratioP2;P2;SDS_P1;SDS_P2;PMS_P1;PMS_P2;Temp;Humidity;BMP_temperature;BMP_pressure;BME280_temperature;BME280_humidity;BME280_pressure;Samples;Min_cycle;Max_cycle;Signal;HPM_P1;HPM_P2
2023/12/15 00:01:55;;;;;;;4.47;2.00;;;4.80;99.90;;;;;;4896376;29;20131;-74
2023/12/15 00:04:20;;;;;;;3.00;1.48;;;5.00;99.90;;;;;;4896334;29;20124;-73
2023/12/15 00:06:46;;;;;;;3.05;1.42;;;4.80;99.90;;;;;;4896275;29;20053;-73
2023/12/15 00:09:12;;;;;;;3.90;1.70;;;4.40;99.90;;;;;;4896973;29;20130;-73
2023/12/15 00:11:37;;;;;;;4.93;2.58;;;4.40;99.90;;;;;;4896573;29;20044;-74
2023/12/15 00:14:03;;;;;;;5.90;2.90;;;4.40;99.90;;;;;;4898193;29;20052;-72
2023/12/15 00:16:29;;;;;;;3.55;2.00;;;4.50;99.90;;;;;;4898352;29;20041;-74
2023/12/15 00:18:54;;;;;;;3.35;1.70;;;4.30;99.90;;;;;;4900390;29;20167;-74
2023/12/15 00:21:20;;;;;;;2.92;1.40;;;4.20;99.90;;;;;;4902188;29;20032;-75
2023/12/15 00:23:46;;;;;;;5.18;1.40;;;3.80;99.90;;;;;;4900275;29;20055;-74
2023/12/15 00:26:11;;;;;;;3.03;1.45;;;3.60;99.90;;;;;;4900364;29;20123;-74
2023/12/15 00:28:37;;;;;;;5.25;1.67;;;3.40;99.90;;;;;;4883762;29;20123;-74
2023/12/15 00:31:03;;;;;;;4.65;1.88;;;3.30;99.90;;;;;;4900278;29;20036;-73
2023/12/15 00:33:29;;;;;;;5.53;1.70;;;3.40;99.90;;;;;;4901115;29;20044;-74
2023/12/15 00:35:54;;;;;;;2.58;1.38;;;3.30;99.90;;;;;;4901499;29;20118;-73
2023/12/15 00:38:20;;;;;;;3.10;1.40;;;3.40;99.90;;;;;;4900237;29;20091;-74
2023/12/15 00:40:45;;;;;;;3.25;1.55;;;3.70;99.90;;;;;;4899359;29;20095;-74
2023/12/15 00:43:11;;;;;;;3.45;1.63;;;3.80;99.90;;;;;;4901819;29;20043;-74
2023/12/15 00:45:37;;;;;;;3.38;1.50;;;4.00;99.90;;;;;;4899941;29;20394;-74
2023/12/15 00:48:03;;;;;;;2.58;1.40;;;4.00;99.90;;;;;;4900703;29;20443;-73
2023/12/15 00:50:28;;;;;;;3.83;1.42;;;4.40;99.90;;;;;;4900735;29;20572;-73
2023/12/15 00:52:55;;;;;;;3.03;1.40;;;4.30;99.90;;;;;;4894647;29;20139;-73
2023/12/15 00:55:21;;;;;;;2.92;1.50;;;4.20;99.90;;;;;;4899179;29;20056;-73
2023/12/15 00:57:47;;;;;;;3.38;1.50;;;4.10;99.90;;;;;;4899510;29;20454;-73
2023/12/15 01:00:13;;;;;;;4.07;1.65;;;4.30;99.90;;;;;;4899832;29;20060;-74
2023/12/15 01:02:38;;;;;;;3.25;1.58;;;4.00;99.90;;;;;;4899481;29;20025;-74
2023/12/15 01:05:04;;;;;;;4.22;1.48;;;3.80;99.90;;;;;;4901452;29;20024;-73
2023/12/15 01:07:31;;;;;;;3.13;1.20;;;3.80;99.90;;;;;;4900091;29;20071;-72
2023/12/15 01:09:57;;;;;;;4.90;1.88;;;3.70;99.90;;;;;;4899354;29;20039;-73
2023/12/15 01:12:22;;;;;;;3.95;1.67;;;3.70;99.90;;;;;;4900781;29;20032;-73
2023/12/15 01:14:49;;;;;;;3.28;1.80;;;3.80;99.90;;;;;;4898300;29;20157;-73
2023/12/15 01:17:14;;;;;;;4.05;1.65;;;3.80;99.90;;;;;;4899918;29;20160;-73
2023/12/15 01:19:40;;;;;;;2.55;1.35;;;3.70;99.90;;;;;;4899958;29;20068;-73
2023/12/15 01:22:06;;;;;;;4.13;1.40;;;3.50;99.90;;;;;;4899589;29;20040;-72
2023/12/15 01:24:31;;;;;;;4.25;1.80;;;3.50;99.90;;;;;;4898847;29;20036;-72
2023/12/15 01:26:57;;;;;;;2.85;1.17;;;3.50;99.90;;;;;;4900945;29;20435;-72
2023/12/15 01:29:22;;;;;;;4.55;1.50;;;3.10;99.90;;;;;;4899362;29;20090;-73
2023/12/15 01:31:49;;;;;;;2.95;1.23;;;3.10;99.90;;;;;;4898929;29;20475;-72
2023/12/15 01:34:14;;;;;;;2.53;1.20;;;3.20;99.90;;;;;;4900174;29;20040;-72
2023/12/15 01:36:40;;;;;;;5.05;1.90;;;3.30;99.90;;;;;;4899661;29;20644;-73
2023/12/15 01:39:06;;;;;;;3.45;1.73;;;3.60;99.90;;;;;;4898036;29;20435;-73
2023/12/15 01:41:31;;;;;;;3.25;1.63;;;3.70;99.90;;;;;;4901110;29;20451;-72
2023/12/15 01:43:57;;;;;;;4.57;2.05;;;3.90;99.90;;;;;;4898025;29;20040;-72
2023/12/15 01:46:23;;;;;;;4.95;2.10;;;4.20;99.90;;;;;;4899735;29;20040;-72
2023/12/15 01:48:49;;;;;;;3.80;1.60;;;4.30;99.90;;;;;;4900240;29;20039;-72
2023/12/15 01:51:15;;;;;;;2.67;1.27;;;4.20;99.90;;;;;;4898971;29;20458;-73
2023/12/15 01:53:42;;;;;;;3.20;1.40;;;3.80;99.90;;;;;;4898528;29;20032;-72
2023/12/15 01:56:12;;;;;;;5.82;2.05;;;3.80;99.90;;;;;;4900239;29;20040;-72
2023/12/15 01:58:37;;;;;;;4.13;1.80;;;3.80;99.90;;;;;;4899624;29;20180;-73
2023/12/15 02:01:04;;;;;;;5.65;2.28;;;3.80;99.90;;;;;;4898669;29;20032;-72
2023/12/15 02:03:30;;;;;;;3.92;1.77;;;3.70;99.90;;;;;;4900016;29;20099;-72
2023/12/15 02:05:56;;;;;;;3.70;1.60;;;3.60;99.90;;;;;;4879851;29;20497;-72
2023/12/15 02:08:22;;;;;;;4.97;2.72;;;3.30;99.90;;;;;;4897223;29;20036;-72
2023/12/15 02:10:47;;;;;;;5.55;2.67;;;3.00;99.90;;;;;;4900146;29;20495;-73
2023/12/15 02:13:13;;;;;;;6.03;2.17;;;3.00;99.90;;;;;;4899598;29;20114;-73
2023/12/15 02:15:39;;;;;;;5.60;2.30;;;2.90;99.90;;;;;;4898333;29;20079;-72
2023/12/15 02:18:04;;;;;;;4.18;1.90;;;2.90;99.90;;;;;;4899545;29;20086;-72
2023/12/15 02:20:31;;;;;;;3.28;1.40;;;3.00;99.90;;;;;;4896327;29;20487;-73
2023/12/15 02:22:57;;;;;;;3.08;1.77;;;3.30;99.90;;;;;;4895839;29;20033;-72
2023/12/15 02:25:23;;;;;;;4.80;1.40;;;3.60;99.90;;;;;;4899068;29;20573;-72
2023/12/15 02:27:49;;;;;;;3.75;1.50;;;3.80;99.90;;;;;;4897244;29;20066;-72
2023/12/15 02:30:15;;;;;;;3.33;1.38;;;3.90;99.90;;;;;;4893638;29;20573;-72
2023/12/15 02:32:40;;;;;;;2.90;1.38;;;3.90;99.90;;;;;;4898823;29;20430;-73
2023/12/15 02:35:06;;;;;;;3.15;1.20;;;3.80;99.90;;;;;;4898398;29;20190;-73
2023/12/15 02:37:32;;;;;;;2.55;1.25;;;3.70;99.90;;;;;;4898209;29;20051;-72
2023/12/15 02:39:58;;;;;;;2.75;1.40;;;3.70;99.90;;;;;;4897449;29;20044;-73
2023/12/15 02:42:24;;;;;;;3.03;1.40;;;3.60;99.90;;;;;;4898736;29;20040;-73
2023/12/15 02:44:49;;;;;;;2.72;1.50;;;3.60;99.90;;;;;;4898127;29;20426;-72
2023/12/15 02:47:15;;;;;;;2.55;1.33;;;3.50;99.90;;;;;;4898870;29;20040;-73
2023/12/15 02:49:41;;;;;;;2.90;1.40;;;3.60;99.90;;;;;;4897758;29;20039;-73
2023/12/15 02:52:07;;;;;;;3.15;1.70;;;3.80;99.90;;;;;;4897953;29;20095;-72
2023/12/15 02:54:34;;;;;;;2.33;1.30;;;3.70;99.90;;;;;;4897845;29;20040;-73
2023/12/15 02:57:00;;;;;;;2.75;1.40;;;3.60;99.90;;;;;;4898693;29;20032;-73
2023/12/15 02:59:25;;;;;;;3.20;1.85;;;3.60;99.90;;;;;;4895650;29;20028;-72
2023/12/15 03:01:51;;;;;;;3.47;2.00;;;3.60;99.90;;;;;;4899285;29;21351;-72
2023/12/15 03:04:16;;;;;;;2.88;1.58;;;3.50;99.90;;;;;;4898504;29;20032;-71
2023/12/15 03:06:42;;;;;;;2.50;1.25;;;3.50;99.90;;;;;;4899030;29;20040;-72
2023/12/15 03:09:08;;;;;;;3.85;1.50;;;3.40;99.90;;;;;;4897212;29;20108;-73
2023/12/15 03:11:33;;;;;;;1.70;0.93;;;3.30;99.90;;;;;;4897401;29;20036;-72
2023/12/15 03:13:59;;;;;;;3.28;1.27;;;3.40;99.90;;;;;;4899074;29;21301;-73
2023/12/15 03:16:25;;;;;;;2.28;1.08;;;3.50;99.90;;;;;;4897318;29;20038;-73
2023/12/15 03:18:51;;;;;;;3.45;1.38;;;3.60;99.90;;;;;;4897190;29;20087;-72
2023/12/15 03:21:16;;;;;;;2.83;1.38;;;3.70;99.90;;;;;;4898210;29;20060;-72
2023/12/15 03:23:42;;;;;;;2.97;1.40;;;3.70;99.90;;;;;;4897429;29;20086;-73
2023/12/15 03:26:08;;;;;;;3.38;1.55;;;3.50;99.90;;;;;;4897461;29;20044;-72
2023/12/15 03:28:33;;;;;;;4.43;1.75;;;3.30;99.90;;;;;;4897905;29;20558;-72
2023/12/15 03:30:59;;;;;;;4.40;1.95;;;3.40;99.90;;;;;;4897801;29;20139;-72
2023/12/15 03:33:28;;;;;;;2.95;1.50;;;3.20;99.90;;;;;;4898330;29;20047;-73
2023/12/15 03:35:53;;;;;;;2.85;1.10;;;3.20;99.90;;;;;;4897781;29;20050;-73
2023/12/15 03:38:20;;;;;;;6.18;1.67;;;3.10;99.90;;;;;;4896553;29;20440;-73
2023/12/15 03:40:46;;;;;;;3.55;1.48;;;3.20;99.90;;;;;;4896660;29;20044;-72
2023/12/15 03:43:11;;;;;;;2.92;1.27;;;3.20;99.90;;;;;;4898627;29;20044;-73
2023/12/15 03:45:37;;;;;;;2.38;1.05;;;3.10;99.90;;;;;;4897281;29;20036;-72
2023/12/15 03:48:03;;;;;;;3.13;1.52;;;2.90;99.90;;;;;;4897521;29;20028;-72
2023/12/15 03:50:29;;;;;;;2.83;1.35;;;2.90;99.90;;;;;;4897050;29;20040;-72
2023/12/15 03:52:55;;;;;;;3.83;1.55;;;2.90;99.90;;;;;;4897048;29;20036;-72
2023/12/15 03:55:21;;;;;;;3.63;1.20;;;2.80;99.90;;;;;;4896255;29;20100;-72
2023/12/15 03:57:46;;;;;;;2.55;1.27;;;2.90;99.90;;;;;;4898432;29;20032;-72
2023/12/15 04:00:12;;;;;;;2.17;1.17;;;3.00;99.90;;;;;;4895023;29;20133;-72
2023/12/15 04:02:38;;;;;;;2.03;1.00;;;3.00;99.90;;;;;;4895020;29;20095;-72
2023/12/15 04:05:04;;;;;;;3.03;1.55;;;3.00;99.90;;;;;;4892219;29;20115;-73
2023/12/15 04:07:30;;;;;;;2.75;1.13;;;3.20;99.90;;;;;;4893114;29;20044;-72
2023/12/15 04:09:56;;;;;;;2.40;1.02;;;3.10;99.90;;;;;;4891329;29;20047;-73
2023/12/15 04:12:22;;;;;;;5.20;1.83;;;3.00;99.90;;;;;;4893753;29;20138;-72
2023/12/15 04:14:47;;;;;;;2.70;1.15;;;3.00;99.90;;;;;;4891441;29;20485;-72
2023/12/15 04:17:13;;;;;;;4.85;2.05;;;2.90;99.90;;;;;;4890067;29;20024;-72
2023/12/15 04:19:39;;;;;;;3.33;1.42;;;3.10;99.90;;;;;;4890062;29;20053;-71
2023/12/15 04:22:05;;;;;;;4.13;1.75;;;3.10;99.90;;;;;;4890250;29;20933;-72
2023/12/15 04:24:30;;;;;;;4.05;1.90;;;3.10;99.90;;;;;;4892875;29;20032;-73
2023/12/15 04:26:56;;;;;;;2.75;1.58;;;3.10;99.90;;;;;;4894149;29;20043;-72
2023/12/15 04:29:22;;;;;;;4.05;1.80;;;3.00;99.90;;;;;;4892255;29;20044;-73
2023/12/15 04:31:47;;;;;;;2.72;1.23;;;2.90;99.90;;;;;;4893115;29;20293;-73
2023/12/15 04:34:13;;;;;;;5.35;3.05;;;2.80;99.90;;;;;;4896151;29;20438;-74
2023/12/15 04:36:39;;;;;;;3.70;1.48;;;2.70;99.90;;;;;;4896928;29;20722;-73
2023/12/15 04:39:06;;;;;;;3.10;1.70;;;2.90;99.90;;;;;;4896203;29;20451;-74
2023/12/15 04:41:32;;;;;;;3.53;1.83;;;3.00;99.90;;;;;;4897967;29;20123;-73
2023/12/15 04:43:58;;;;;;;4.07;1.88;;;2.90;99.90;;;;;;4895488;29;20040;-74
2023/12/15 04:46:26;;;;;;;4.45;1.92;;;3.00;99.90;;;;;;4896243;29;20040;-74
2023/12/15 04:48:53;;;;;;;3.22;1.35;;;2.90;99.90;;;;;;4896209;29;20036;-74
2023/12/15 04:51:18;;;;;;;8.07;1.40;;;2.90;99.90;;;;;;4894870;29;20123;-73
2023/12/15 04:53:45;;;;;;;2.35;1.27;;;3.00;99.90;;;;;;4896388;29;20035;-74
2023/12/15 04:56:11;;;;;;;3.28;1.58;;;3.30;99.90;;;;;;4897008;29;20032;-73
2023/12/15 04:58:37;;;;;;;3.10;1.40;;;3.30;99.90;;;;;;4896300;29;20036;-73
2023/12/15 05:01:03;;;;;;;3.03;1.30;;;3.30;99.90;;;;;;4895641;29;20596;-73
2023/12/15 05:03:30;;;;;;;2.35;1.13;;;3.30;99.90;;;;;;4892990;29;20063;-73
2023/12/15 05:05:56;;;;;;;4.22;1.63;;;3.30;99.90;;;;;;4894933;29;20024;-73
2023/12/15 05:08:22;;;;;;;4.00;1.73;;;3.10;99.90;;;;;;4893561;29;20047;-73
2023/12/15 05:10:47;;;;;;;2.85;1.30;;;3.10;99.90;;;;;;4891888;29;20036;-73
2023/12/15 05:13:13;;;;;;;2.15;1.23;;;3.10;99.90;;;;;;4893351;29;20044;-74
2023/12/15 05:15:39;;;;;;;4.07;1.80;;;3.00;99.90;;;;;;4893847;29;20107;-73
2023/12/15 05:18:04;;;;;;;2.55;1.30;;;3.20;99.90;;;;;;4892979;29;23521;-74
2023/12/15 05:20:31;;;;;;;2.67;1.40;;;3.20;99.90;;;;;;4892918;29;20065;-73
2023/12/15 05:22:57;;;;;;;3.83;1.55;;;3.20;99.90;;;;;;4893909;29;20071;-73
2023/12/15 05:25:23;;;;;;;2.92;1.35;;;3.20;99.90;;;;;;4893657;29;20032;-73
2023/12/15 05:27:49;;;;;;;2.70;1.30;;;3.10;99.90;;;;;;4894821;29;20040;-73
2023/12/15 05:30:14;;;;;;;3.17;1.40;;;3.10;99.90;;;;;;4895677;29;20438;-73
2023/12/15 05:32:40;;;;;;;2.80;1.40;;;3.00;99.90;;;;;;4895293;29;20043;-73
2023/12/15 05:35:06;;;;;;;2.60;1.40;;;3.10;99.90;;;;;;4864643;29;20051;-73
2023/12/15 05:37:32;;;;;;;2.92;1.50;;;3.00;99.90;;;;;;4880121;29;20067;-74
2023/12/15 05:39:57;;;;;;;3.15;1.23;;;3.10;99.90;;;;;;4893834;29;20047;-73
2023/12/15 05:42:25;;;;;;;2.85;1.30;;;3.00;99.90;;;;;;4896907;29;20133;-73
2023/12/15 05:44:51;;;;;;;5.05;1.90;;;2.90;99.90;;;;;;4894855;29;20044;-73
2023/12/15 05:47:17;;;;;;;4.38;2.00;;;3.00;99.90;;;;;;4895596;29;20507;-73
2023/12/15 05:49:43;;;;;;;2.72;1.20;;;3.10;99.90;;;;;;4893416;29;20044;-74
2023/12/15 05:52:14;;;;;;;2.13;1.23;;;3.10;99.90;;;;;;4896056;29;20348;-73
2023/12/15 05:54:40;;;;;;;2.60;1.15;;;2.90;99.90;;;;;;4895135;29;22162;-73
2023/12/15 05:57:06;;;;;;;3.83;1.65;;;3.10;99.90;;;;;;4894690;29;20040;-74
2023/12/15 05:59:31;;;;;;;3.05;1.27;;;3.10;99.90;;;;;;4894528;29;20103;-73
2023/12/15 06:01:57;;;;;;;4.13;1.13;;;3.10;99.90;;;;;;4895263;29;21361;-73
2023/12/15 06:04:23;;;;;;;4.18;1.65;;;3.10;99.90;;;;;;4893110;29;20040;-73
2023/12/15 06:06:50;;;;;;;2.47;1.30;;;3.10;99.90;;;;;;4893376;29;20451;-73
2023/12/15 06:09:16;;;;;;;3.72;1.42;;;3.00;99.90;;;;;;4890541;29;20047;-73
2023/12/15 06:11:42;;;;;;;6.53;1.55;;;2.90;99.90;;;;;;4892695;29;20036;-73
2023/12/15 06:14:08;;;;;;;3.22;1.40;;;2.90;99.90;;;;;;4897236;29;21123;-72
2023/12/15 06:16:35;;;;;;;4.35;1.80;;;2.90;99.90;;;;;;4900768;29;20083;-72
2023/12/15 06:19:01;;;;;;;4.25;1.80;;;2.80;99.90;;;;;;4899943;29;20060;-72
2023/12/15 06:21:27;;;;;;;4.38;2.03;;;2.70;99.90;;;;;;4896386;29;20557;-72
2023/12/15 06:23:53;;;;;;;4.47;2.58;;;2.80;99.90;;;;;;4899507;29;20125;-71
2023/12/15 06:26:24;;;;;;;3.60;1.70;;;2.90;99.90;;;;;;4899799;29;20032;-73
2023/12/15 06:28:50;;;;;;;4.32;1.63;;;2.90;99.90;;;;;;4897811;29;20036;-72
2023/12/15 06:31:16;;;;;;;3.92;2.15;;;2.80;99.90;;;;;;4894375;29;20032;-72
2023/12/15 06:33:42;;;;;;;4.32;1.88;;;2.80;99.90;;;;;;4894412;29;21032;-72
2023/12/15 06:36:09;;;;;;;3.05;1.45;;;2.90;99.90;;;;;;4894787;29;20044;-73
2023/12/15 06:38:42;;;;;;;3.25;1.45;;;2.90;99.90;;;;;;4894657;29;20043;-74
2023/12/15 06:41:09;;;;;;;3.15;1.58;;;3.00;99.90;;;;;;4893489;29;20040;-73
2023/12/15 06:43:38;;;;;;;3.50;1.60;;;3.00;99.90;;;;;;4890961;29;20028;-74
2023/12/15 06:46:03;;;;;;;4.68;1.88;;;3.00;99.90;;;;;;4892810;29;20127;-73
2023/12/15 06:48:29;;;;;;;3.38;1.50;;;2.90;99.90;;;;;;4891107;29;20087;-73
2023/12/15 06:50:55;;;;;;;2.60;1.38;;;2.90;99.90;;;;;;4891038;29;20036;-74
2023/12/15 06:53:21;;;;;;;4.07;1.67;;;2.90;99.90;;;;;;4892799;29;20024;-73
2023/12/15 06:55:47;;;;;;;3.08;1.48;;;2.90;99.90;;;;;;4888153;29;20502;-73
2023/12/15 06:58:12;;;;;;;3.17;1.60;;;2.80;99.90;;;;;;4891004;29;20040;-74
2023/12/15 07:00:40;;;;;;;3.85;1.60;;;2.80;99.90;;;;;;4892115;29;20054;-73
2023/12/15 07:03:06;;;;;;;3.03;1.40;;;2.90;99.90;;;;;;4891942;29;20140;-74
2023/12/15 07:05:31;;;;;;;2.25;1.05;;;3.00;99.90;;;;;;4889864;29;20149;-74
2023/12/15 07:07:58;;;;;;;2.88;1.40;;;3.00;99.90;;;;;;4891433;29;20036;-73
2023/12/15 07:10:23;;;;;;;3.47;1.58;;;2.90;99.90;;;;;;4891538;29;20054;-73
2023/12/15 07:12:49;;;;;;;2.95;1.30;;;2.80;99.90;;;;;;4890394;29;20673;-73
2023/12/15 07:15:15;;;;;;;3.15;1.20;;;2.90;99.90;;;;;;4890969;29;20043;-73
2023/12/15 07:17:41;;;;;;;3.85;1.95;;;2.90;99.90;;;;;;4891633;29;20094;-73
2023/12/15 07:20:08;;;;;;;4.60;1.30;;;2.70;99.90;;;;;;4890752;29;20068;-73
2023/12/15 07:22:34;;;;;;;3.20;1.50;;;2.80;99.90;;;;;;4895569;29;20032;-74
2023/12/15 07:25:00;;;;;;;3.50;1.42;;;3.00;99.90;;;;;;4891941;29;20064;-72
2023/12/15 07:27:26;;;;;;;3.00;1.55;;;3.10;99.90;;;;;;4890517;29;20029;-74
2023/12/15 07:29:54;;;;;;;3.63;1.70;;;3.10;99.90;;;;;;4890182;29;20040;-72
2023/12/15 07:32:20;;;;;;;2.78;1.10;;;3.00;99.90;;;;;;4892567;29;20087;-73
2023/12/15 07:34:46;;;;;;;4.13;1.35;;;3.00;99.90;;;;;;4889556;29;20041;-74
2023/12/15 07:37:12;;;;;;;3.50;1.83;;;3.10;99.90;;;;;;4890408;29;20032;-73
2023/12/15 07:39:38;;;;;;;4.15;1.70;;;3.00;99.90;;;;;;4890678;29;20046;-74
2023/12/15 07:42:04;;;;;;;5.70;2.53;;;2.90;99.90;;;;;;4891863;29;20339;-72
2023/12/15 07:44:30;;;;;;;3.63;1.88;;;2.90;99.90;;;;;;4890757;29;20032;-73
2023/12/15 07:46:55;;;;;;;3.40;1.65;;;3.00;99.90;;;;;;4889455;29;20082;-72
2023/12/15 07:49:22;;;;;;;3.20;1.27;;;3.00;99.90;;;;;;4892592;29;20027;-73
2023/12/15 07:51:49;;;;;;;4.05;1.35;;;3.00;99.90;;;;;;4889782;29;20058;-73
2023/12/15 07:54:16;;;;;;;3.53;2.03;;;2.90;99.90;;;;;;4890251;29;20139;-73
2023/12/15 07:56:41;;;;;;;4.38;2.28;;;2.90;99.90;;;;;;4890357;29;20163;-73
2023/12/15 07:59:08;;;;;;;4.35;2.25;;;3.00;99.90;;;;;;4891272;29;20611;-72
2023/12/15 08:01:34;;;;;;;3.35;1.40;;;2.90;99.90;;;;;;4890910;29;20043;-72
2023/12/15 08:03:59;;;;;;;4.50;1.98;;;2.90;99.90;;;;;;4891027;29;20558;-73
2023/12/15 08:06:25;;;;;;;4.63;2.35;;;2.80;99.90;;;;;;4891057;29;20033;-72
2023/12/15 08:08:52;;;;;;;4.22;1.92;;;2.80;99.90;;;;;;4894359;29;20083;-74
2023/12/15 08:11:18;;;;;;;5.55;2.30;;;2.90;99.90;;;;;;4895539;29;21272;-72
2023/12/15 08:13:44;;;;;;;4.00;2.17;;;2.80;99.90;;;;;;4893040;29;20040;-73
2023/12/15 08:16:10;;;;;;;4.00;1.70;;;2.80;99.90;;;;;;4894468;29;20111;-72
2023/12/15 08:18:36;;;;;;;4.15;1.35;;;2.70;99.90;;;;;;4894643;29;20092;-72
2023/12/15 08:21:02;;;;;;;3.42;1.30;;;2.60;99.90;;;;;;4895144;29;20048;-73
2023/12/15 08:23:28;;;;;;;2.70;1.08;;;2.70;99.90;;;;;;4885613;29;20036;-72
2023/12/15 08:25:54;;;;;;;3.22;1.60;;;2.80;99.90;;;;;;4892694;29;20091;-73
2023/12/15 08:28:20;;;;;;;3.83;1.70;;;2.80;99.90;;;;;;4894384;29;21233;-72
2023/12/15 08:30:49;;;;;;;3.30;1.08;;;3.00;99.90;;;;;;4892654;29;20498;-72
2023/12/15 08:33:15;;;;;;;3.20;1.50;;;3.30;99.90;;;;;;4890889;29;20036;-72
2023/12/15 08:35:41;;;;;;;5.05;1.30;;;3.40;99.90;;;;;;4894429;29;20155;-72
2023/12/15 08:38:07;;;;;;;3.08;1.33;;;3.80;99.90;;;;;;4894886;29;20086;-72
2023/12/15 08:40:33;;;;;;;2.13;1.02;;;4.00;99.90;;;;;;4897152;29;20123;-72
2023/12/15 08:42:58;;;;;;;3.05;1.40;;;4.10;99.90;;;;;;4894775;29;20036;-72
2023/12/15 08:45:24;;;;;;;2.85;1.30;;;4.00;99.90;;;;;;4896049;29;20126;-72
2023/12/15 08:47:50;;;;;;;2.88;1.30;;;3.90;99.90;;;;;;4896503;29;20036;-73
2023/12/15 08:50:16;;;;;;;2.92;1.20;;;4.10;99.90;;;;;;4896572;29;20632;-72
2023/12/15 08:52:43;;;;;;;4.55;2.22;;;4.20;99.90;;;;;;4895294;29;20032;-72
2023/12/15 08:55:09;;;;;;;6.05;2.90;;;3.80;99.90;;;;;;4895801;29;20040;-72
2023/12/15 08:57:34;;;;;;;7.82;2.60;;;3.40;99.90;;;;;;4895066;29;20039;-73
2023/12/15 09:00:00;;;;;;;5.05;2.35;;;3.20;99.90;;;;;;4896055;29;20044;-73
2023/12/15 09:02:26;;;;;;;3.15;1.30;;;3.20;99.90;;;;;;4895339;29;20046;-72
2023/12/15 09:04:52;;;;;;;2.70;1.45;;;3.60;99.90;;;;;;4896298;29;20807;-72
2023/12/15 09:07:18;;;;;;;3.63;1.40;;;3.70;99.90;;;;;;4895148;29;20035;-72
2023/12/15 09:09:44;;;;;;;7.00;3.80;;;3.60;99.90;;;;;;4895246;29;20036;-72
2023/12/15 09:12:10;;;;;;;7.05;3.88;;;3.50;99.90;;;;;;4895513;29;20671;-72
2023/12/15 09:14:37;;;;;;;7.50;3.63;;;3.30;99.90;;;;;;4893452;29;20051;-77
2023/12/15 09:17:03;;;;;;;6.97;3.70;;;3.40;99.90;;;;;;4878661;29;20095;-72
2023/12/15 09:19:30;;;;;;;7.45;3.60;;;3.40;99.90;;;;;;4895299;29;20055;-73
2023/12/15 09:21:56;;;;;;;8.57;5.32;;;3.50;99.90;;;;;;4895227;29;20520;-73
2023/12/15 09:24:21;;;;;;;5.90;3.15;;;3.40;99.90;;;;;;4892694;29;20741;-73
2023/12/15 09:26:48;;;;;;;5.03;2.65;;;3.50;99.90;;;;;;4890354;29;20123;-73
2023/12/15 09:29:14;;;;;;;5.68;3.20;;;3.50;99.90;;;;;;4887245;29;20612;-73
2023/12/15 09:31:40;;;;;;;3.80;2.20;;;3.50;99.90;;;;;;4894024;29;20035;-73
2023/12/15 09:34:06;;;;;;;4.75;2.47;;;3.40;99.90;;;;;;4894763;29;20119;-73
2023/12/15 09:36:32;;;;;;;5.80;2.97;;;3.40;99.90;;;;;;4895643;29;20126;-73
2023/12/15 09:38:58;;;;;;;5.13;2.38;;;3.40;99.90;;;;;;4894361;29;20087;-73
2023/12/15 09:41:24;;;;;;;11.18;8.07;;;3.40;99.90;;;;;;4894191;29;20038;-72
2023/12/15 09:43:50;;;;;;;6.90;3.03;;;3.30;99.90;;;;;;4895381;29;20111;-73
2023/12/15 09:46:16;;;;;;;5.50;3.03;;;3.30;99.90;;;;;;4894819;29;20044;-72
2023/12/15 09:48:43;;;;;;;4.50;2.90;;;3.40;99.90;;;;;;4895928;29;20036;-72
2023/12/15 09:51:14;;;;;;;6.18;3.30;;;3.60;99.90;;;;;;4893092;29;20044;-73
2023/12/15 09:53:44;;;;;;;3.58;1.77;;;4.00;99.90;;;;;;4893253;29;20114;-73
2023/12/15 09:56:10;;;;;;;2.38;1.10;;;4.40;99.90;;;;;;4894581;29;20119;-73
2023/12/15 09:58:36;;;;;;;5.25;1.70;;;4.80;99.90;;;;;;4895844;29;20695;-72
2023/12/15 10:01:03;;;;;;;3.05;1.42;;;5.00;99.90;;;;;;4893220;29;20103;-72
2023/12/15 10:03:29;;;;;;;4.22;2.45;;;4.70;99.90;;;;;;4893523;29;20043;-73
2023/12/15 10:05:55;;;;;;;7.85;2.75;;;4.30;99.90;;;;;;4894154;29;20447;-73
2023/12/15 10:08:23;;;;;;;7.07;4.70;;;4.00;99.90;;;;;;4893768;29;20043;-73
2023/12/15 10:10:49;;;;;;;8.15;3.63;;;3.90;99.90;;;;;;4892223;29;20028;-73
2023/12/15 10:13:16;;;;;;;7.05;4.75;;;3.70;99.90;;;;;;4894404;29;20044;-73
2023/12/15 10:15:41;;;;;;;5.80;2.67;;;3.80;99.90;;;;;;4892727;29;20044;-73
2023/12/15 10:18:07;;;;;;;4.30;1.90;;;4.10;99.90;;;;;;4890851;29;20462;-73
2023/12/15 10:20:33;;;;;;;4.75;2.13;;;4.30;99.90;;;;;;4890120;29;20039;-73
2023/12/15 10:23:06;;;;;;;4.32;2.53;;;4.30;99.90;;;;;;4890005;29;20497;-73
2023/12/15 10:25:33;;;;;;;5.25;2.80;;;4.10;99.90;;;;;;4889946;29;20102;-73
2023/12/15 10:27:59;;;;;;;7.85;3.97;;;4.00;99.90;;;;;;4892131;29;20395;-73
2023/12/15 10:30:25;;;;;;;8.57;5.10;;;4.00;99.90;;;;;;4889407;29;20977;-73
2023/12/15 10:32:53;;;;;;;9.02;4.32;;;4.00;99.90;;;;;;4890160;29;20190;-72
2023/12/15 10:35:25;;;;;;;7.63;4.13;;;4.00;99.90;;;;;;4891559;29;20070;-72
2023/12/15 10:37:52;;;;;;;7.47;4.30;;;3.90;99.90;;;;;;4891451;29;20054;-72
2023/12/15 10:40:18;;;;;;;9.45;4.50;;;4.00;99.90;;;;;;4890267;29;20056;-72
2023/12/15 10:42:44;;;;;;;7.65;3.28;;;4.00;99.90;;;;;;4890242;29;20040;-72
2023/12/15 10:45:10;;;;;;;5.60;2.42;;;4.10;99.90;;;;;;4892453;29;20040;-72
2023/12/15 10:47:37;;;;;;;5.25;2.22;;;4.30;99.90;;;;;;4892911;29;21248;-73
2023/12/15 10:50:04;;;;;;;5.28;2.40;;;4.40;99.90;;;;;;4893456;29;20044;-71
2023/12/15 10:52:33;;;;;;;3.10;1.85;;;4.70;99.90;;;;;;4892240;29;20036;-71
2023/12/15 10:55:03;;;;;;;3.67;1.73;;;4.80;99.90;;;;;;4889764;29;20040;-72
2023/12/15 10:57:31;;;;;;;2.85;1.35;;;5.00;99.90;;;;;;4890940;29;20106;-73
2023/12/15 10:59:57;;;;;;;3.22;1.55;;;5.10;99.90;;;;;;4891998;29;20067;-74
2023/12/15 11:02:27;;;;;;;4.70;1.50;;;5.40;99.90;;;;;;4890046;29;20087;-73
2023/12/15 11:04:55;;;;;;;4.15;2.38;;;5.70;99.90;;;;;;4890805;29;20032;-74
2023/12/15 11:07:24;;;;;;;5.03;2.20;;;6.00;99.90;;;;;;4893411;29;20075;-74
2023/12/15 11:09:51;;;;;;;4.32;2.13;;;6.10;99.90;;;;;;4892129;29;20774;-74
2023/12/15 11:12:34;;;;;;;18.67;2.92;;;6.20;99.90;;;;;;4890372;29;20032;-74
2023/12/15 11:15:06;;;;;;;5.90;2.20;;;6.40;99.90;;;;;;4891234;29;20040;-74
2023/12/15 11:17:33;;;;;;;4.25;2.30;;;6.60;99.90;;;;;;4892303;29;20099;-74
2023/12/15 11:20:06;;;;;;;4.55;1.33;;;6.80;99.90;;;;;;4894040;29;20068;-74
2023/12/15 11:23:01;;;;;;;3.45;1.33;;;7.10;99.90;;;;;;4893830;29;20032;-74
2023/12/15 11:25:31;;;;;;;4.00;2.00;;;7.10;99.90;;;;;;4880635;29;20052;-73
2023/12/15 11:28:03;;;;;;;3.53;1.80;;;7.10;99.90;;;;;;4894137;29;20040;-74
2023/12/15 11:30:44;;;;;;;3.67;1.65;;;7.20;99.90;;;;;;4892893;29;20063;-74
2023/12/15 11:33:27;;;;;;;4.10;2.28;;;7.40;99.90;;;;;;4889292;29;20084;-73
2023/12/15 11:36:05;;;;;;;5.85;1.80;;;7.60;99.90;;;;;;4888830;29;20055;-73
2023/12/15 11:38:31;;;;;;;3.65;1.63;;;7.70;99.90;;;;;;4890030;29;20644;-73
2023/12/15 11:40:58;;;;;;;5.95;2.63;;;7.80;99.90;;;;;;4891582;29;22063;-73
2023/12/15 11:43:23;;;;;;;4.82;2.83;;;8.10;99.90;;;;;;4894486;29;20044;-73
2023/12/15 11:45:51;;;;;;;8.52;4.20;;;8.10;99.90;;;;;;4893909;29;20101;-73
2023/12/15 11:48:17;;;;;;;8.32;4.10;;;8.10;99.90;;;;;;4896963;29;20040;-73
2023/12/15 11:50:47;;;;;;;6.50;3.00;;;8.10;99.90;;;;;;4895095;29;20043;-74
2023/12/15 11:53:14;;;;;;;6.63;2.50;;;7.90;99.90;;;;;;4892912;29;20040;-73
2023/12/15 11:55:44;;;;;;;4.35;2.20;;;7.80;99.90;;;;;;4894419;29;20044;-73
2023/12/15 11:58:10;;;;;;;4.22;2.00;;;7.80;99.90;;;;;;4896670;29;20535;-73
2023/12/15 12:00:36;;;;;;;4.65;2.45;;;7.90;99.90;;;;;;4894334;29;20096;-74
2023/12/15 12:03:03;;;;;;;110.72;68.68;;;8.20;99.90;;;;;;4894864;29;20044;-73
2023/12/15 12:05:30;;;;;;;63.55;43.90;;;8.40;99.90;;;;;;4896380;29;20044;-75
2023/12/15 12:07:59;;;;;;;45.15;27.27;;;8.40;99.90;;;;;;4894186;29;20180;-74
2023/12/15 12:10:30;;;;;;;18.10;9.63;;;8.20;99.90;;;;;;4894452;29;20928;-73
2023/12/15 12:12:57;;;;;;;15.98;10.35;;;8.20;99.90;;;;;;4893434;29;20549;-73
2023/12/15 12:15:22;;;;;;;9.68;5.18;;;8.10;99.90;;;;;;4892864;29;20040;-74
2023/12/15 12:17:48;;;;;;;9.48;6.00;;;8.30;99.90;;;;;;4892083;29;20051;-74
2023/12/15 12:20:14;;;;;;;8.07;3.85;;;8.50;99.90;;;;;;4892836;29;20665;-73
2023/12/15 12:22:45;;;;;;;4.53;2.25;;;8.70;99.90;;;;;;4892975;29;20108;-74
2023/12/15 12:25:11;;;;;;;7.68;3.20;;;9.10;99.90;;;;;;4890819;29;20158;-75
2023/12/15 12:27:37;;;;;;;4.72;1.42;;;9.30;99.90;;;;;;4893033;29;20044;-75
2023/12/15 12:30:12;;;;;;;2.92;1.05;;;9.40;98.00;;;;;;4892717;29;20096;-74
2023/12/15 12:32:39;;;;;;;2.85;1.08;;;9.60;97.10;;;;;;4893166;29;20046;-75
2023/12/15 12:35:05;;;;;;;3.13;1.17;;;9.60;97.20;;;;;;4891813;29;20123;-74
2023/12/15 12:37:34;;;;;;;3.63;1.52;;;9.70;98.90;;;;;;4897094;29;20082;-73
2023/12/15 12:40:03;;;;;;;2.80;1.13;;;9.40;99.90;;;;;;4894070;29;20047;-74
2023/12/15 12:42:30;;;;;;;1.85;0.63;;;9.60;96.10;;;;;;4893391;29;20056;-74
2023/12/15 12:44:56;;;;;;;0.95;0.50;;;9.90;94.70;;;;;;4892890;29;20083;-75
2023/12/15 12:47:23;;;;;;;1.77;0.75;;;10.00;95.70;;;;;;4893792;29;20146;-74
2023/12/15 12:49:49;;;;;;;1.95;0.75;;;10.00;93.90;;;;;;4894487;29;20100;-74
2023/12/15 12:52:17;;;;;;;1.40;0.57;;;10.10;94.50;;;;;;4891778;29;20044;-74